Time;durP1;ratioP1;P1;durP2;ratioP2;P2;SDS_P1;SDS_P2;PMS_P1;PMS_P2;Temp;Humidity;BMP_temperature;BMP_pressure;BME280_temperature;BME280_humidity;BME280_pressure;Samples;Min_cycle;Max_cycle;Signal;HPM_P1;HPM_P2
2023/08/03 00:00:11;;;;;;;4.67;1.80;;;;;;;;;;5029419;28;20204;-75
2023/08/03 00:02:41;;;;;;;7.43;2.03;;;;;;;;;;5027407;28;20178;-75
2023/08/03 00:05:08;;;;;;;8.87;2.50;;;;;;;;;;5009944;28;20185;-75
2023/08/03 00:07:34;;;;;;;9.90;1.83;;;;;;;;;;5028477;28;20190;-75
2023/08/03 00:10:01;;;;;;;5.90;2.00;;;;;;;;;;5009216;28;20600;-75
2023/08/03 00:12:28;;;;;;;4.30;1.50;;;;;;;;;;5011058;28;20218;-75
2023/08/03 00:14:54;;;;;;;7.57;1.90;;;;;;;;;;4994334;28;20740;-75
2023/08/03 00:17:20;;;;;;;5.40;1.70;;;;;;;;;;5026976;28;20213;-75
2023/08/03 00:19:47;;;;;;;8.33;1.90;;;;;;;;;;5028555;28;20202;-75
2023/08/03 00:22:13;;;;;;;7.77;2.17;;;;;;;;;;5011599;28;20718;-75
2023/08/03 00:24:39;;;;;;;9.30;1.80;;;;;;;;;;5011112;28;20182;-75
2023/08/03 00:27:05;;;;;;;8.30;1.97;;;;;;;;;;5023446;28;20193;-75
2023/08/03 00:29:32;;;;;;;6.87;1.70;;;;;;;;;;5010301;28;20186;-75
2023/08/03 00:32:00;;;;;;;4.47;1.50;;;;;;;;;;5009755;28;20179;-75
2023/08/03 00:34:26;;;;;;;9.57;2.00;;;;;;;;;;5028675;28;20182;-75
2023/08/03 00:36:52;;;;;;;5.53;1.60;;;;;;;;;;5028142;28;20215;-75
2023/08/03 00:39:18;;;;;;;5.13;1.67;;;;;;;;;;5011083;28;20186;-75
2023/08/03 00:41:45;;;;;;;9.90;1.67;;;;;;;;;;5028942;28;20178;-75
2023/08/03 00:44:11;;;;;;;5.30;1.60;;;;;;;;;;5028831;28;20182;-75
2023/08/03 00:46:37;;;;;;;5.20;1.50;;;;;;;;;;5028808;28;20189;-75
2023/08/03 00:49:03;;;;;;;7.47;1.83;;;;;;;;;;5011703;28;20520;-75
2023/08/03 00:51:30;;;;;;;7.33;1.70;;;;;;;;;;5032338;28;20195;-75
2023/08/03 00:53:56;;;;;;;6.87;1.73;;;;;;;;;;5032431;28;20637;-75
2023/08/03 00:56:22;;;;;;;4.67;1.80;;;;;;;;;;5014203;28;20199;-75
2023/08/03 00:58:48;;;;;;;8.93;1.70;;;;;;;;;;5013505;28;20183;-75
2023/08/03 01:01:14;;;;;;;5.50;1.50;;;;;;;;;;5019862;28;20294;-75
2023/08/03 01:03:41;;;;;;;5.60;1.63;;;;;;;;;;5027783;28;20202;-75
2023/08/03 01:06:07;;;;;;;7.23;2.30;;;;;;;;;;5013952;28;20194;-75
2023/08/03 01:08:33;;;;;;;5.97;2.00;;;;;;;;;;5013667;28;20704;-75
2023/08/03 01:10:59;;;;;;;10.93;2.47;;;;;;;;;;5025903;28;20249;-74
2023/08/03 01:13:25;;;;;;;6.33;1.77;;;;;;;;;;5031990;28;20228;-75
2023/08/03 01:15:53;;;;;;;6.40;2.10;;;;;;;;;;5010117;28;20312;-75
2023/08/03 01:18:19;;;;;;;8.30;2.33;;;;;;;;;;5031808;28;20585;-75
2023/08/03 01:20:46;;;;;;;8.40;2.13;;;;;;;;;;5013671;28;20206;-74
2023/08/03 01:23:13;;;;;;;9.80;2.20;;;;;;;;;;5014281;28;20178;-75
2023/08/03 01:25:39;;;;;;;7.50;1.90;;;;;;;;;;5012765;28;20179;-75
2023/08/03 01:28:06;;;;;;;6.67;1.90;;;;;;;;;;4997343;28;20277;-75
2023/08/03 01:30:32;;;;;;;10.93;1.93;;;;;;;;;;5031664;28;20290;-75
2023/08/03 01:32:59;;;;;;;8.73;1.93;;;;;;;;;;5024237;28;20201;-75
2023/08/03 01:35:25;;;;;;;6.50;1.70;;;;;;;;;;5031045;28;20182;-75
2023/08/03 01:37:51;;;;;;;5.63;1.70;;;;;;;;;;5026153;28;20179;-75
2023/08/03 01:40:21;;;;;;;6.80;1.80;;;;;;;;;;5011454;28;20210;-75
2023/08/03 01:42:47;;;;;;;7.07;1.70;;;;;;;;;;5013133;28;20182;-74
2023/08/03 01:45:13;;;;;;;5.17;1.50;;;;;;;;;;5013382;28;20206;-75
2023/08/03 01:47:40;;;;;;;5.27;1.60;;;;;;;;;;5013302;28;20190;-75
2023/08/03 01:50:07;;;;;;;6.73;1.70;;;;;;;;;;5012754;28;20202;-75
2023/08/03 01:52:34;;;;;;;5.43;1.67;;;;;;;;;;5009877;28;20176;-75
2023/08/03 01:55:00;;;;;;;4.93;1.57;;;;;;;;;;4997204;28;20179;-75
2023/08/03 01:57:26;;;;;;;7.77;1.90;;;;;;;;;;5011076;28;20221;-75
2023/08/03 01:59:52;;;;;;;5.33;1.60;;;;;;;;;;5012868;28;20704;-75
2023/08/03 02:02:19;;;;;;;5.50;1.73;;;;;;;;;;4995977;28;20186;-75
2023/08/03 02:04:49;;;;;;;5.40;1.50;;;;;;;;;;5013837;28;20567;-74
2023/08/03 02:07:19;;;;;;;5.57;1.67;;;;;;;;;;5004770;28;20175;-74
2023/08/03 02:09:45;;;;;;;7.73;1.60;;;;;;;;;;5011866;28;20236;-75
2023/08/03 02:12:11;;;;;;;4.83;1.40;;;;;;;;;;5004897;28;20191;-75
2023/08/03 02:14:37;;;;;;;6.90;1.50;;;;;;;;;;5023104;28;20191;-75
2023/08/03 02:17:03;;;;;;;5.80;1.60;;;;;;;;;;4996111;28;20685;-75
2023/08/03 02:19:30;;;;;;;7.03;1.70;;;;;;;;;;5012814;28;20277;-75
2023/08/03 02:21:56;;;;;;;4.00;1.40;;;;;;;;;;5011612;28;20179;-75
2023/08/03 02:24:22;;;;;;;3.93;1.50;;;;;;;;;;4995210;28;20262;-75
2023/08/03 02:26:48;;;;;;;3.87;1.30;;;;;;;;;;5028148;28;20334;-75
2023/08/03 02:29:15;;;;;;;4.87;1.30;;;;;;;;;;5012548;28;20550;-75
2023/08/03 02:31:41;;;;;;;5.07;1.33;;;;;;;;;;5028137;28;20183;-75
2023/08/03 02:34:07;;;;;;;6.00;1.50;;;;;;;;;;5012139;28;20187;-74
2023/08/03 02:36:39;;;;;;;1.90;0.93;;;;;;;;;;5008124;28;20207;-75
2023/08/03 02:39:09;;;;;;;5.53;1.40;;;;;;;;;;5012440;28;20240;-75
2023/08/03 02:41:38;;;;;;;3.60;1.23;;;;;;;;;;4988349;28;20203;-75
2023/08/03 02:44:05;;;;;;;3.63;1.20;;;;;;;;;;4996069;28;20197;-74
2023/08/03 02:46:34;;;;;;;7.20;1.50;;;;;;;;;;4995714;28;20186;-75
2023/08/03 02:49:01;;;;;;;5.27;1.10;;;;;;;;;;5012775;28;20189;-75
2023/08/03 02:51:30;;;;;;;4.30;1.10;;;;;;;;;;5012636;28;20248;-75
2023/08/03 02:53:56;;;;;;;4.20;1.40;;;;;;;;;;5014243;28;20615;-75
2023/08/03 02:56:24;;;;;;;2.90;1.17;;;;;;;;;;5011723;28;20214;-74
2023/08/03 02:58:54;;;;;;;2.63;1.00;;;;;;;;;;5012109;28;20602;-74
2023/08/03 03:01:30;;;;;;;3.33;1.10;;;;;;;;;;5010456;28;20224;-73
2023/08/03 03:03:57;;;;;;;3.07;1.10;;;;;;;;;;5011723;28;20237;-73
2023/08/03 03:06:24;;;;;;;2.60;0.90;;;;;;;;;;5010936;28;20189;-74
2023/08/03 03:08:51;;;;;;;5.10;1.07;;;;;;;;;;4993810;28;20187;-74
2023/08/03 03:11:17;;;;;;;5.23;1.10;;;;;;;;;;5029583;28;20214;-74
2023/08/03 03:13:44;;;;;;;5.17;1.30;;;;;;;;;;5010024;28;20187;-73
2023/08/03 03:16:11;;;;;;;3.13;1.10;;;;;;;;;;5004910;28;20275;-74
2023/08/03 03:18:37;;;;;;;2.87;1.00;;;;;;;;;;5011308;28;20230;-74
2023/08/03 03:21:03;;;;;;;1.83;0.83;;;;;;;;;;5029331;28;20261;-73
2023/08/03 03:23:30;;;;;;;3.37;1.07;;;;;;;;;;5009637;28;20182;-74
2023/08/03 03:25:56;;;;;;;3.03;1.30;;;;;;;;;;5010751;28;20195;-73
2023/08/03 03:28:22;;;;;;;3.80;1.00;;;;;;;;;;5010863;28;20536;-74
2023/08/03 03:30:49;;;;;;;2.30;1.03;;;;;;;;;;5010956;28;20213;-74
2023/08/03 03:33:15;;;;;;;2.83;1.00;;;;;;;;;;5011925;28;20558;-73
2023/08/03 03:35:47;;;;;;;5.27;1.17;;;;;;;;;;4992822;28;20552;-74
2023/08/03 03:38:16;;;;;;;2.63;1.07;;;;;;;;;;5012975;28;20186;-74
2023/08/03 03:40:43;;;;;;;2.73;0.90;;;;;;;;;;5010293;28;20666;-74
2023/08/03 03:43:09;;;;;;;3.47;0.87;;;;;;;;;;5005886;28;20209;-74
2023/08/03 03:45:36;;;;;;;2.50;1.10;;;;;;;;;;5010817;28;20202;-74
2023/08/03 03:48:02;;;;;;;2.80;1.00;;;;;;;;;;5011830;28;20218;-73
2023/08/03 03:50:30;;;;;;;3.50;1.20;;;;;;;;;;5011566;28;20201;-74
2023/08/03 03:52:56;;;;;;;3.53;1.23;;;;;;;;;;5011407;28;20225;-76
2023/08/03 03:55:22;;;;;;;3.63;1.10;;;;;;;;;;5010846;28;20264;-76
2023/08/03 03:57:55;;;;;;;3.00;1.10;;;;;;;;;;5010142;28;20210;-76
2023/08/03 04:00:21;;;;;;;3.97;1.13;;;;;;;;;;5013905;28;20209;-74
2023/08/03 04:02:50;;;;;;;2.63;1.07;;;;;;;;;;4995204;28;20778;-74
2023/08/03 04:05:19;;;;;;;3.37;1.00;;;;;;;;;;4994903;28;20179;-74
2023/08/03 04:07:45;;;;;;;1.80;0.90;;;;;;;;;;5028170;28;20189;-74
2023/08/03 04:10:12;;;;;;;3.43;1.00;;;;;;;;;;5028333;28;20673;-74
2023/08/03 04:12:38;;;;;;;2.33;1.00;;;;;;;;;;5010902;28;20717;-74
2023/08/03 04:15:04;;;;;;;3.83;0.90;;;;;;;;;;5006311;28;20261;-74
2023/08/03 04:17:30;;;;;;;5.33;1.40;;;;;;;;;;5010647;28;20214;-74
2023/08/03 04:19:56;;;;;;;3.97;0.93;;;;;;;;;;4994507;28;20214;-74
2023/08/03 04:22:23;;;;;;;2.57;0.83;;;;;;;;;;5011213;28;20179;-74
2023/08/03 04:24:49;;;;;;;2.63;1.00;;;;;;;;;;5011142;28;20234;-74
2023/08/03 04:27:15;;;;;;;6.00;1.50;;;;;;;;;;5032446;28;20178;-73
2023/08/03 04:29:42;;;;;;;3.10;1.20;;;;;;;;;;5014597;28;20286;-74
2023/08/03 04:32:09;;;;;;;4.43;1.23;;;;;;;;;;5014292;28;20187;-74
2023/08/03 04:34:35;;;;;;;3.97;1.13;;;;;;;;;;5014729;28;20261;-74
2023/08/03 04:37:06;;;;;;;3.33;1.07;;;;;;;;;;4981535;28;20211;-74
2023/08/03 04:39:32;;;;;;;3.73;1.30;;;;;;;;;;5014998;28;20182;-74
2023/08/03 04:41:58;;;;;;;5.13;1.13;;;;;;;;;;5014249;28;20179;-74
2023/08/03 04:44:28;;;;;;;2.03;0.97;;;;;;;;;;5014566;28;20260;-74
2023/08/03 04:46:54;;;;;;;3.80;1.00;;;;;;;;;;5031526;28;20240;-74
2023/08/03 04:49:22;;;;;;;3.17;1.10;;;;;;;;;;4995529;28;20269;-74
2023/08/03 04:51:53;;;;;;;6.47;1.20;;;;;;;;;;4996718;28;20219;-74
2023/08/03 04:54:21;;;;;;;2.97;1.10;;;;;;;;;;5013939;28;20313;-74
2023/08/03 04:56:49;;;;;;;4.73;1.40;;;;;;;;;;4997197;28;20216;-74
2023/08/03 04:59:16;;;;;;;2.30;0.97;;;;;;;;;;5014135;28;20187;-74
2023/08/03 05:01:42;;;;;;;3.70;1.03;;;;;;;;;;5013602;28;20186;-74
2023/08/03 05:04:09;;;;;;;2.87;1.00;;;;;;;;;;5014212;28;20190;-74
2023/08/03 05:06:35;;;;;;;5.03;1.00;;;;;;;;;;4997004;28;20710;-74
2023/08/03 05:09:01;;;;;;;6.20;1.10;;;;;;;;;;5026059;28;20179;-74
2023/08/03 05:11:28;;;;;;;1.67;1.10;;;;;;;;;;5032410;22;20232;-74
2023/08/03 05:13:54;;;;;;;3.60;1.00;;;;;;;;;;5019714;28;20189;-74
2023/08/03 05:16:24;;;;;;;3.00;1.20;;;;;;;;;;5032869;28;20209;-74
2023/08/03 05:18:53;;;;;;;2.07;1.00;;;;;;;;;;5032348;28;20244;-75
2023/08/03 05:21:20;;;;;;;3.33;1.20;;;;;;;;;;5016527;28;20226;-75
2023/08/03 05:23:46;;;;;;;3.77;1.03;;;;;;;;;;5030546;28;20190;-75
2023/08/03 05:26:12;;;;;;;2.50;1.10;;;;;;;;;;5030541;28;20689;-74
2023/08/03 05:28:38;;;;;;;3.03;1.17;;;;;;;;;;5030938;28;20666;-75
2023/08/03 05:31:07;;;;;;;2.87;1.10;;;;;;;;;;5013981;28;20768;-75
2023/08/03 05:33:34;;;;;;;2.07;1.00;;;;;;;;;;5031956;28;20620;-75
2023/08/03 05:36:01;;;;;;;3.20;1.17;;;;;;;;;;5030720;28;20202;-74
2023/08/03 05:38:27;;;;;;;1.77;1.00;;;;;;;;;;5011834;28;20233;-74
2023/08/03 05:40:53;;;;;;;4.43;1.30;;;;;;;;;;5012538;28;20202;-75
2023/08/03 05:43:22;;;;;;;5.67;1.30;;;;;;;;;;5029297;28;20202;-75
2023/08/03 05:45:49;;;;;;;4.53;1.33;;;;;;;;;;5029963;28;20179;-74
2023/08/03 05:48:19;;;;;;;2.73;1.17;;;;;;;;;;4996373;28;20692;-74
2023/08/03 05:50:46;;;;;;;4.23;1.40;;;;;;;;;;5031225;28;20198;-75
2023/08/03 05:53:12;;;;;;;3.23;1.20;;;;;;;;;;5013265;28;20270;-75
2023/08/03 05:55:39;;;;;;;3.30;1.33;;;;;;;;;;5012730;28;20557;-75
2023/08/03 05:58:05;;;;;;;4.27;1.20;;;;;;;;;;5030654;28;20206;-74
2023/08/03 06:00:32;;;;;;;4.47;1.17;;;;;;;;;;5030299;28;20289;-74
2023/08/03 06:02:58;;;;;;;3.87;1.30;;;;;;;;;;5027424;28;20235;-74
2023/08/03 06:05:41;;;;;;;3.13;1.27;;;;;;;;;;5029656;28;20186;-75
2023/08/03 06:08:12;;;;;;;2.70;1.20;;;;;;;;;;5011841;28;20186;-74
2023/08/03 06:10:39;;;;;;;3.00;1.10;;;;;;;;;;5029653;28;20688;-75
2023/08/03 06:13:05;;;;;;;4.93;1.43;;;;;;;;;;5030115;28;20171;-74
2023/08/03 06:15:31;;;;;;;4.87;1.43;;;;;;;;;;5012692;28;20557;-75
2023/08/03 06:18:03;;;;;;;2.80;1.10;;;;;;;;;;5025989;28;20317;-74
2023/08/03 06:20:30;;;;;;;4.67;1.40;;;;;;;;;;5009067;28;20670;-74
2023/08/03 06:22:56;;;;;;;3.53;1.50;;;;;;;;;;5011687;28;20295;-75
2023/08/03 06:25:22;;;;;;;3.70;1.30;;;;;;;;;;5013519;28;20186;-76
2023/08/03 06:27:49;;;;;;;3.30;1.17;;;;;;;;;;5012792;28;20645;-74
2023/08/03 06:30:17;;;;;;;3.80;1.20;;;;;;;;;;5029756;28;20213;-76
2023/08/03 06:32:43;;;;;;;5.27;1.10;;;;;;;;;;5030783;28;20195;-76
2023/08/03 06:35:24;;;;;;;4.27;1.50;;;;;;;;;;5026523;28;20182;-73
2023/08/03 06:37:50;;;;;;;2.33;1.00;;;;;;;;;;5029130;28;20245;-73
2023/08/03 06:40:16;;;;;;;3.03;1.30;;;;;;;;;;5026287;28;20222;-74
2023/08/03 06:42:43;;;;;;;4.83;1.37;;;;;;;;;;5027838;28;20597;-75
2023/08/03 06:45:09;;;;;;;3.63;1.23;;;;;;;;;;5028588;28;20214;-74
2023/08/03 06:47:35;;;;;;;3.53;1.40;;;;;;;;;;5029562;28;20265;-77
2023/08/03 06:50:02;;;;;;;3.23;1.20;;;;;;;;;;5029859;28;20229;-74
2023/08/03 06:52:28;;;;;;;3.43;1.30;;;;;;;;;;5029652;28;20190;-74
2023/08/03 06:54:54;;;;;;;3.73;1.20;;;;;;;;;;5028854;28;20190;-75
2023/08/03 06:57:20;;;;;;;3.03;1.33;;;;;;;;;;5011826;28;20664;-75
2023/08/03 06:59:46;;;;;;;4.00;1.67;;;;;;;;;;5010121;28;20293;-77
2023/08/03 07:02:12;;;;;;;3.83;1.20;;;;;;;;;;5010638;28;20269;-76
2023/08/03 07:04:38;;;;;;;6.07;1.40;;;;;;;;;;5011688;28;20261;-77
2023/08/03 07:07:04;;;;;;;3.10;1.20;;;;;;;;;;4994998;28;20186;-77
2023/08/03 07:09:31;;;;;;;7.20;1.20;;;;;;;;;;5012274;28;20190;-77
2023/08/03 07:11:57;;;;;;;3.97;1.40;;;;;;;;;;5009473;28;21664;-77
2023/08/03 07:14:23;;;;;;;6.93;1.50;;;;;;;;;;5011392;28;20182;-78
2023/08/03 07:16:49;;;;;;;4.63;1.50;;;;;;;;;;5029204;28;20209;-77
2023/08/03 07:19:18;;;;;;;3.70;1.33;;;;;;;;;;5012801;28;20554;-78
2023/08/03 07:21:44;;;;;;;4.10;1.23;;;;;;;;;;5012359;28;20193;-76
2023/08/03 07:24:10;;;;;;;5.03;1.30;;;;;;;;;;5030158;28;20768;-77
2023/08/03 07:26:37;;;;;;;3.03;1.40;;;;;;;;;;5029402;28;20689;-78
2023/08/03 07:29:03;;;;;;;3.40;1.20;;;;;;;;;;5012274;28;20676;-77
2023/08/03 07:31:30;;;;;;;4.17;1.37;;;;;;;;;;5029853;28;20699;-78
2023/08/03 07:33:56;;;;;;;4.60;1.10;;;;;;;;;;5012102;28;20190;-78
2023/08/03 07:36:22;;;;;;;4.17;1.17;;;;;;;;;;4995311;28;20674;-77
2023/08/03 07:38:48;;;;;;;4.73;1.40;;;;;;;;;;5012464;28;20201;-78
2023/08/03 07:41:14;;;;;;;3.27;1.40;;;;;;;;;;5029671;28;20283;-78
2023/08/03 07:43:40;;;;;;;5.03;1.50;;;;;;;;;;5012147;28;20174;-78
2023/08/03 07:46:06;;;;;;;4.67;1.43;;;;;;;;;;5011665;28;20185;-78
2023/08/03 07:48:33;;;;;;;4.43;1.20;;;;;;;;;;5029970;28;20179;-77
2023/08/03 07:50:59;;;;;;;3.10;1.30;;;;;;;;;;5029696;28;20225;-77
2023/08/03 07:53:25;;;;;;;3.93;1.40;;;;;;;;;;5030054;28;20190;-77
2023/08/03 07:55:51;;;;;;;4.90;1.37;;;;;;;;;;5011606;28;20190;-75
2023/08/03 07:58:17;;;;;;;4.30;1.10;;;;;;;;;;5029850;28;20657;-77
2023/08/03 08:00:44;;;;;;;5.90;1.60;;;;;;;;;;5031748;28;20205;-78
2023/08/03 08:03:10;;;;;;;6.07;1.40;;;;;;;;;;5016456;28;20182;-77
2023/08/03 08:05:36;;;;;;;2.87;1.10;;;;;;;;;;4999911;28;20179;-77
2023/08/03 08:08:02;;;;;;;3.73;1.00;;;;;;;;;;5033766;28;20312;-78
2023/08/03 08:10:28;;;;;;;3.97;1.30;;;;;;;;;;4999656;28;20761;-77
2023/08/03 08:12:54;;;;;;;2.10;1.03;;;;;;;;;;4999507;28;20198;-78
2023/08/03 08:15:20;;;;;;;2.93;1.27;;;;;;;;;;5033347;28;20210;-77
2023/08/03 08:17:47;;;;;;;4.30;1.20;;;;;;;;;;5033189;28;20218;-78
2023/08/03 08:20:13;;;;;;;3.77;1.23;;;;;;;;;;5016032;28;20240;-78
2023/08/03 08:22:39;;;;;;;3.80;1.30;;;;;;;;;;5015824;28;20182;-78
2023/08/03 08:25:05;;;;;;;2.80;1.20;;;;;;;;;;5033483;28;20183;-77
2023/08/03 08:27:32;;;;;;;5.43;1.37;;;;;;;;;;5033414;28;20197;-77
2023/08/03 08:30:00;;;;;;;3.80;1.10;;;;;;;;;;5015524;28;20310;-76
2023/08/03 08:32:26;;;;;;;4.00;1.10;;;;;;;;;;5033222;28;20191;-77
2023/08/03 08:34:52;;;;;;;3.37;1.40;;;;;;;;;;5033298;28;20198;-76
2023/08/03 08:37:18;;;;;;;4.00;1.20;;;;;;;;;;5014834;28;20218;-77
2023/08/03 08:39:44;;;;;;;3.57;1.10;;;;;;;;;;5015284;28;20202;-77
2023/08/03 08:42:11;;;;;;;5.73;1.30;;;;;;;;;;5033565;28;20183;-77
2023/08/03 08:44:38;;;;;;;4.60;1.30;;;;;;;;;;5035464;28;20207;-77
2023/08/03 08:47:04;;;;;;;5.47;1.30;;;;;;;;;;5031129;28;20277;-77
2023/08/03 08:49:31;;;;;;;5.43;1.13;;;;;;;;;;5033154;28;20209;-76
2023/08/03 08:51:59;;;;;;;3.67;1.10;;;;;;;;;;5032737;28;20325;-76
2023/08/03 08:54:32;;;;;;;5.10;1.30;;;;;;;;;;5033042;28;20186;-77
2023/08/03 08:56:58;;;;;;;4.40;1.17;;;;;;;;;;5031875;28;20253;-77
2023/08/03 08:59:26;;;;;;;2.73;1.10;;;;;;;;;;5015197;28;20178;-77
2023/08/03 09:01:53;;;;;;;2.80;1.07;;;;;;;;;;5014843;28;20685;-77
2023/08/03 09:04:32;;;;;;;2.80;1.20;;;;;;;;;;4995567;28;20203;-76
2023/08/03 09:06:58;;;;;;;5.77;1.40;;;;;;;;;;5031335;28;20194;-78
2023/08/03 09:09:35;;;;;;;2.20;1.30;;;;;;;;;;4979393;28;20187;-77
2023/08/03 09:12:01;;;;;;;4.67;1.23;;;;;;;;;;5030457;28;20265;-77
2023/08/03 09:14:27;;;;;;;5.23;1.30;;;;;;;;;;5014939;28;20183;-77
2023/08/03 09:16:54;;;;;;;3.73;1.23;;;;;;;;;;5013764;28;20762;-77
2023/08/03 09:19:38;;;;;;;3.23;1.33;;;;;;;;;;5032622;28;20521;-77
2023/08/03 09:22:04;;;;;;;2.53;1.00;;;;;;;;;;4982060;28;20731;-77
2023/08/03 09:24:31;;;;;;;3.23;1.13;;;;;;;;;;5014948;28;20182;-77
2023/08/03 09:26:57;;;;;;;3.30;1.10;;;;;;;;;;5031535;28;20182;-77
2023/08/03 09:29:27;;;;;;;3.07;1.20;;;;;;;;;;5014762;28;20186;-78
2023/08/03 09:32:06;;;;;;;4.40;1.30;;;;;;;;;;5014367;28;20191;-77
2023/08/03 09:34:40;;;;;;;3.33;1.20;;;;;;;;;;5014403;28;20540;-78
2023/08/03 09:37:07;;;;;;;6.23;1.67;;;;;;;;;;5013499;28;20218;-77
2023/08/03 09:39:38;;;;;;;4.27;1.10;;;;;;;;;;5032152;28;20664;-77
2023/08/03 09:42:09;;;;;;;5.97;1.37;;;;;;;;;;4998089;28;20260;-78
2023/08/03 09:44:36;;;;;;;4.63;1.37;;;;;;;;;;5014266;28;20186;-78
2023/08/03 09:47:03;;;;;;;3.67;1.40;;;;;;;;;;5013615;28;20284;-77
2023/08/03 09:49:30;;;;;;;4.00;1.50;;;;;;;;;;5031770;28;20183;-78
2023/08/03 09:51:57;;;;;;;4.60;1.47;;;;;;;;;;5013835;28;20187;-77
2023/08/03 09:54:25;;;;;;;5.03;1.70;;;;;;;;;;5032212;28;20190;-77
2023/08/03 09:56:54;;;;;;;4.70;1.70;;;;;;;;;;5030764;28;20229;-75
2023/08/03 09:59:24;;;;;;;4.23;1.30;;;;;;;;;;4994926;28;20188;-78
2023/08/03 10:01:52;;;;;;;3.57;1.30;;;;;;;;;;5029992;28;20210;-78
2023/08/03 10:04:20;;;;;;;3.37;1.40;;;;;;;;;;5008304;28;20193;-78
2023/08/03 10:06:48;;;;;;;5.73;1.53;;;;;;;;;;5031024;28;20178;-77
2023/08/03 10:09:17;;;;;;;3.67;1.30;;;;;;;;;;5014224;28;20187;-77
2023/08/03 10:11:46;;;;;;;6.53;1.40;;;;;;;;;;5031747;28;20211;-77
2023/08/03 10:14:12;;;;;;;1.67;0.90;;;;;;;;;;5031747;28;20214;-77
2023/08/03 10:16:41;;;;;;;2.87;1.20;;;;;;;;;;5031056;28;20213;-78
2023/08/03 10:19:08;;;;;;;4.70;1.10;;;;;;;;;;5031623;28;20191;-76
2023/08/03 10:21:34;;;;;;;5.00;1.30;;;;;;;;;;5014152;28;20195;-77
2023/08/03 10:24:10;;;;;;;2.70;1.10;;;;;;;;;;5030452;28;20190;-77
2023/08/03 10:26:37;;;;;;;3.37;1.10;;;;;;;;;;5013180;28;20193;-77
2023/08/03 10:29:06;;;;;;;3.47;1.03;;;;;;;;;;5031135;28;20711;-77
2023/08/03 10:31:32;;;;;;;4.80;1.27;;;;;;;;;;5013626;28;20202;-77
2023/08/03 10:34:03;;;;;;;2.67;1.17;;;;;;;;;;5031296;28;20282;-77
2023/08/03 10:36:29;;;;;;;1.67;1.07;;;;;;;;;;5033524;28;20202;-77
2023/08/03 10:38:56;;;;;;;2.83;1.07;;;;;;;;;;5031260;28;20185;-77
2023/08/03 10:41:30;;;;;;;3.00;1.00;;;;;;;;;;5031338;28;20550;-77
2023/08/03 10:44:14;;;;;;;2.17;0.77;;;;;;;;;;5013222;28;20194;-78
2023/08/03 10:46:51;;;;;;;1.83;0.80;;;;;;;;;;5012725;28;20274;-77
2023/08/03 10:49:23;;;;;;;1.50;0.70;;;;;;;;;;5024480;28;20645;-78
2023/08/03 10:51:50;;;;;;;3.50;0.90;;;;;;;;;;5013102;28;20214;-78
2023/08/03 10:54:17;;;;;;;3.53;0.97;;;;;;;;;;5012859;28;20657;-78
2023/08/03 10:57:04;;;;;;;2.23;0.90;;;;;;;;;;5012365;28;20208;-77
2023/08/03 10:59:35;;;;;;;3.73;0.77;;;;;;;;;;5008336;28;20559;-77
2023/08/03 11:02:08;;;;;;;2.13;0.80;;;;;;;;;;5012999;28;20438;-78
2023/08/03 11:04:35;;;;;;;4.00;1.00;;;;;;;;;;5030758;28;20186;-77
2023/08/03 11:07:03;;;;;;;3.80;0.90;;;;;;;;;;5012106;28;20192;-77
2023/08/03 11:09:29;;;;;;;2.40;0.90;;;;;;;;;;5030221;28;20182;-77
2023/08/03 11:11:57;;;;;;;1.50;0.80;;;;;;;;;;5059987;22;20261;-79
2023/08/03 11:14:24;;;;;;;1.23;0.70;;;;;;;;;;5051872;28;20255;-78
2023/08/03 11:16:50;;;;;;;1.67;0.87;;;;;;;;;;5033267;28;20222;-78
2023/08/03 11:19:16;;;;;;;2.57;0.80;;;;;;;;;;5017710;28;20182;-78
2023/08/03 11:21:42;;;;;;;3.70;0.80;;;;;;;;;;5051537;28;20194;-79
2023/08/03 11:24:10;;;;;;;3.27;0.90;;;;;;;;;;5051942;28;20185;-79
2023/08/03 11:26:36;;;;;;;2.83;0.80;;;;;;;;;;5033166;28;20185;-78
2023/08/03 11:29:03;;;;;;;1.30;0.63;;;;;;;;;;5036783;28;20262;-79
2023/08/03 11:31:29;;;;;;;1.33;0.73;;;;;;;;;;5033994;28;20209;-78
2023/08/03 11:33:56;;;;;;;1.77;0.80;;;;;;;;;;5033550;28;20237;-78
2023/08/03 11:36:23;;;;;;;2.27;0.90;;;;;;;;;;5034232;28;20202;-79
2023/08/03 11:38:50;;;;;;;1.97;0.80;;;;;;;;;;5032429;28;20203;-79
2023/08/03 11:41:18;;;;;;;1.27;0.60;;;;;;;;;;5053405;28;20196;-79
2023/08/03 11:43:44;;;;;;;1.40;0.80;;;;;;;;;;5051506;28;20672;-78
2023/08/03 11:46:10;;;;;;;1.77;0.70;;;;;;;;;;5031957;28;20185;-79
2023/08/03 11:48:36;;;;;;;3.43;1.00;;;;;;;;;;5033433;28;20182;-79
2023/08/03 11:51:03;;;;;;;1.47;0.83;;;;;;;;;;5052903;28;20284;-79
2023/08/03 11:53:30;;;;;;;1.47;0.70;;;;;;;;;;5033985;28;20661;-79
2023/08/03 11:55:59;;;;;;;1.27;0.60;;;;;;;;;;5034936;28;20213;-78
2023/08/03 11:58:26;;;;;;;3.23;0.90;;;;;;;;;;5033407;28;20273;-78
2023/08/03 12:00:59;;;;;;;1.37;0.70;;;;;;;;;;5016767;28;20209;-79
2023/08/03 12:03:33;;;;;;;1.27;0.87;;;;;;;;;;5032096;28;20260;-79
2023/08/03 12:06:09;;;;;;;4.30;0.90;;;;;;;;;;5034677;28;20219;-79
2023/08/03 12:08:43;;;;;;;1.20;0.70;;;;;;;;;;5035005;28;20193;-78
2023/08/03 12:11:09;;;;;;;1.93;0.80;;;;;;;;;;5034941;28;20240;-79
2023/08/03 12:13:36;;;;;;;1.80;0.83;;;;;;;;;;5019869;28;20211;-79
2023/08/03 12:16:02;;;;;;;5.27;0.97;;;;;;;;;;5053247;28;20290;-79
2023/08/03 12:18:28;;;;;;;1.67;0.60;;;;;;;;;;5032614;28;20186;-79
2023/08/03 12:20:55;;;;;;;1.30;0.60;;;;;;;;;;5034714;28;20265;-79
2023/08/03 12:23:21;;;;;;;0.87;0.60;;;;;;;;;;5036734;28;20884;-79
2023/08/03 12:25:48;;;;;;;0.83;0.70;;;;;;;;;;5052897;28;20214;-79
2023/08/03 12:28:14;;;;;;;1.73;0.60;;;;;;;;;;5017690;28;20656;-79
2023/08/03 12:30:41;;;;;;;3.47;0.80;;;;;;;;;;5024313;28;20554;-79
2023/08/03 12:33:08;;;;;;;2.27;0.77;;;;;;;;;;5033938;28;20188;-79
2023/08/03 12:35:34;;;;;;;1.67;0.60;;;;;;;;;;5049606;28;20187;-79
2023/08/03 12:38:01;;;;;;;0.70;0.60;;;;;;;;;;5036454;28;20308;-78
2023/08/03 12:40:27;;;;;;;1.93;0.70;;;;;;;;;;5035135;28;20215;-79
2023/08/03 12:42:53;;;;;;;1.07;0.53;;;;;;;;;;5036800;28;20182;-79
2023/08/03 12:45:19;;;;;;;0.67;0.60;;;;;;;;;;5033568;28;20190;-79
2023/08/03 12:47:46;;;;;;;1.83;0.70;;;;;;;;;;5037088;28;20783;-79
2023/08/03 12:50:12;;;;;;;3.30;0.97;;;;;;;;;;5055524;28;20189;-79
2023/08/03 12:52:38;;;;;;;1.17;0.80;;;;;;;;;;5056675;28;20226;-79
2023/08/03 12:55:04;;;;;;;0.70;0.70;;;;;;;;;;5038292;28;20180;-80
2023/08/03 12:57:30;;;;;;;1.57;0.70;;;;;;;;;;5019892;28;20215;-79
2023/08/03 12:59:56;;;;;;;2.93;0.90;;;;;;;;;;5039885;28;20189;-79
2023/08/03 13:02:24;;;;;;;2.53;0.70;;;;;;;;;;5038459;28;20596;-77
2023/08/03 13:04:53;;;;;;;1.80;0.70;;;;;;;;;;5052082;28;20555;-77
2023/08/03 13:07:19;;;;;;;1.27;0.70;;;;;;;;;;5047751;28;20214;-77
2023/08/03 13:09:46;;;;;;;2.70;0.80;;;;;;;;;;5053974;28;20188;-76
2023/08/03 13:12:14;;;;;;;1.03;0.63;;;;;;;;;;5034533;28;20268;-77
2023/08/03 13:14:41;;;;;;;3.27;0.80;;;;;;;;;;5052560;28;20235;-77
2023/08/03 13:17:07;;;;;;;2.10;0.60;;;;;;;;;;5044328;28;20210;-77
2023/08/03 13:19:34;;;;;;;1.43;0.70;;;;;;;;;;5015157;28;20285;-78
2023/08/03 13:22:00;;;;;;;0.57;0.57;;;;;;;;;;5053878;28;20280;-78
2023/08/03 13:24:26;;;;;;;2.73;0.80;;;;;;;;;;5048602;28;20178;-79
2023/08/03 13:26:54;;;;;;;0.70;0.67;;;;;;;;;;5022278;28;20663;-78
2023/08/03 13:29:21;;;;;;;0.93;0.60;;;;;;;;;;5048110;28;20264;-78
2023/08/03 13:31:47;;;;;;;3.63;0.70;;;;;;;;;;5050670;28;20741;-78
2023/08/03 13:34:13;;;;;;;1.07;0.77;;;;;;;;;;5035257;28;20195;-77
2023/08/03 13:36:39;;;;;;;1.77;0.80;;;;;;;;;;5054652;28;20214;-79
2023/08/03 13:39:06;;;;;;;2.00;0.90;;;;;;;;;;5056408;28;20173;-79
2023/08/03 13:41:32;;;;;;;1.93;1.07;;;;;;;;;;5020892;28;20197;-78
2023/08/03 13:43:58;;;;;;;2.40;0.80;;;;;;;;;;5035525;28;20181;-78
2023/08/03 13:46:24;;;;;;;3.40;0.90;;;;;;;;;;5052821;28;20190;-78
2023/08/03 13:48:51;;;;;;;1.70;0.80;;;;;;;;;;5053287;28;20192;-79
2023/08/03 13:51:17;;;;;;;1.60;0.80;;;;;;;;;;5055049;28;20557;-78
2023/08/03 13:53:43;;;;;;;1.03;0.90;;;;;;;;;;5053426;28;20220;-78
2023/08/03 13:56:09;;;;;;;1.13;0.90;;;;;;;;;;5036111;28;20185;-78
2023/08/03 13:58:35;;;;;;;3.13;1.10;;;;;;;;;;5052895;28;20170;-78
2023/08/03 14:01:02;;;;;;;1.93;1.03;;;;;;;;;;5036741;28;20221;-78
2023/08/03 14:03:28;;;;;;;2.37;1.13;;;;;;;;;;5054834;28;20224;-77
2023/08/03 14:05:54;;;;;;;2.23;1.00;;;;;;;;;;5052551;28;20542;-78
2023/08/03 14:08:20;;;;;;;1.73;1.00;;;;;;;;;;5052853;28;20182;-78
2023/08/03 14:10:46;;;;;;;1.57;1.13;;;;;;;;;;5054951;28;20221;-78
2023/08/03 14:13:12;;;;;;;3.73;1.23;;;;;;;;;;5053898;28;20254;-78
2023/08/03 14:15:38;;;;;;;2.37;1.00;;;;;;;;;;5054576;28;20186;-77
2023/08/03 14:18:05;;;;;;;0.87;0.83;;;;;;;;;;5032799;28;20217;-77
2023/08/03 14:20:31;;;;;;;1.43;0.70;;;;;;;;;;5054738;28;20206;-78
2023/08/03 14:22:57;;;;;;;0.80;0.80;;;;;;;;;;5054695;28;20183;-78
2023/08/03 14:25:23;;;;;;;1.07;0.80;;;;;;;;;;5054953;28;20646;-78
2023/08/03 14:27:52;;;;;;;2.73;0.90;;;;;;;;;;5035508;28;20568;-78
2023/08/03 14:30:18;;;;;;;2.13;1.03;;;;;;;;;;5033478;28;20637;-78
2023/08/03 14:32:44;;;;;;;2.00;0.97;;;;;;;;;;5052639;28;20265;-78
2023/08/03 14:35:10;;;;;;;1.90;0.87;;;;;;;;;;5036787;28;20254;-78
2023/08/03 14:37:36;;;;;;;1.47;0.90;;;;;;;;;;5052130;28;20209;-78
2023/08/03 14:40:02;;;;;;;2.13;1.00;;;;;;;;;;5052512;28;20186;-78
2023/08/03 14:42:30;;;;;;;1.40;0.90;;;;;;;;;;5029592;28;20257;-78